Time;durP1;ratioP1;P1;durP2;ratioP2;P2;SDS_P1;SDS_P2;PMS_P1;PMS_P2;Temp;Humidity;BMP_temperature;BMP_pressure;BME280_temperature;BME280_humidity;BME280_pressure;Samples;Min_cycle;Max_cycle;Signal;HPM_P1;HPM_P2
2024/01/07 00:02:23;;;;;;;17.80;8.93;;;;;;;-5.20;77.13;100542.03;4993491;28;20258;-60
2024/01/07 00:04:51;;;;;;;14.93;9.23;;;;;;;-5.23;77.48;100534.31;5001345;28;20666;-63
2024/01/07 00:07:20;;;;;;;13.67;7.80;;;;;;;-5.22;77.48;100538.59;4998364;28;20200;-61
2024/01/07 00:09:48;;;;;;;16.70;9.57;;;;;;;-5.23;77.42;100539.34;4993905;28;20208;-60
2024/01/07 00:12:17;;;;;;;15.13;8.93;;;;;;;-5.25;77.57;100541.78;4999305;28;20211;-61
2024/01/07 00:14:45;;;;;;;13.87;8.23;;;;;;;-5.29;77.53;100534.84;5000804;28;20674;-62
2024/01/07 00:17:13;;;;;;;15.43;8.77;;;;;;;-5.35;77.73;100540.34;4996776;28;20211;-67
2024/01/07 00:19:42;;;;;;;18.37;9.33;;;;;;;-5.40;78.25;100531.69;5003898;28;20203;-62
2024/01/07 00:22:09;;;;;;;15.57;8.63;;;;;;;-5.39;78.07;100535.06;4992686;28;20267;-61
2024/01/07 00:24:38;;;;;;;16.50;8.60;;;;;;;-5.38;77.84;100542.66;4990185;28;20212;-62
2024/01/07 00:27:08;;;;;;;16.53;10.40;;;;;;;-5.41;78.11;100546.66;4993163;28;20200;-61
2024/01/07 00:29:37;;;;;;;17.13;8.13;;;;;;;-5.41;78.21;100545.03;4991478;28;20192;-60
2024/01/07 00:32:05;;;;;;;20.43;10.33;;;;;;;-5.44;78.47;100541.47;4991779;28;20544;-64
2024/01/07 00:34:33;;;;;;;16.40;9.97;;;;;;;-5.42;78.03;100552.44;4993724;28;20706;-62
2024/01/07 00:37:01;;;;;;;14.97;8.47;;;;;;;-5.45;78.57;100550.63;4992205;28;20208;-62
2024/01/07 00:39:30;;;;;;;16.00;9.40;;;;;;;-5.45;79.07;100552.25;4992790;28;20671;-62
2024/01/07 00:41:57;;;;;;;13.03;8.70;;;;;;;-5.44;78.63;100562.41;4990221;28;20660;-60
2024/01/07 00:44:26;;;;;;;15.30;8.73;;;;;;;-5.47;78.82;100554.69;4993347;28;20210;-61
2024/01/07 00:46:55;;;;;;;14.50;9.20;;;;;;;-5.50;78.56;100558.66;4993729;28;20212;-53
2024/01/07 00:49:23;;;;;;;18.47;9.60;;;;;;;-5.52;79.37;100566.09;4991758;28;20197;-52
2024/01/07 00:51:54;;;;;;;15.87;8.50;;;;;;;-5.52;79.12;100570.22;5005348;28;20285;-60
2024/01/07 00:54:22;;;;;;;16.23;9.27;;;;;;;-5.51;79.15;100565.31;5001719;28;20651;-54
2024/01/07 00:56:51;;;;;;;16.50;8.30;;;;;;;-5.50;79.07;100569.56;4991859;28;20240;-58
2024/01/07 00:59:19;;;;;;;16.67;9.07;;;;;;;-5.49;79.24;100561.25;4992535;28;20223;-53
2024/01/07 01:01:47;;;;;;;11.93;7.23;;;;;;;-5.49;79.17;100565.41;5000595;28;20215;-56
2024/01/07 01:04:16;;;;;;;14.80;8.07;;;;;;;-5.52;79.26;100568.63;4987469;28;20670;-57
2024/01/07 01:06:44;;;;;;;16.17;9.60;;;;;;;-5.53;79.45;100568.50;4998491;28;20230;-59
2024/01/07 01:09:12;;;;;;;16.83;8.70;;;;;;;-5.53;79.62;100581.91;4992874;28;20211;-59
2024/01/07 01:11:40;;;;;;;15.80;8.77;;;;;;;-5.50;79.60;100576.22;4991929;28;20207;-59
2024/01/07 01:14:08;;;;;;;15.10;8.40;;;;;;;-5.51;79.11;100577.00;4995406;28;20570;-59
2024/01/07 01:16:36;;;;;;;16.53;9.10;;;;;;;-5.51;79.49;100577.88;4994905;28;20259;-57
2024/01/07 01:19:04;;;;;;;14.47;8.53;;;;;;;-5.50;79.17;100582.09;4992461;28;20675;-62
2024/01/07 01:21:33;;;;;;;13.60;7.90;;;;;;;-5.49;79.28;100580.47;4999676;28;20579;-59
2024/01/07 01:24:01;;;;;;;13.17;7.97;;;;;;;-5.47;79.12;100583.94;4998217;28;20258;-58
2024/01/07 01:26:29;;;;;;;14.43;8.17;;;;;;;-5.47;78.96;100571.41;4999638;28;20298;-59
2024/01/07 01:28:57;;;;;;;13.63;7.93;;;;;;;-5.47;79.28;100569.75;4999667;28;20669;-59
2024/01/07 01:31:25;;;;;;;14.67;7.60;;;;;;;-5.45;79.14;100569.81;4996828;28;20299;-58
2024/01/07 01:33:53;;;;;;;11.50;6.97;;;;;;;-5.46;78.93;100574.00;4993835;28;20685;-60
2024/01/07 01:36:21;;;;;;;11.03;7.13;;;;;;;-5.47;78.45;100571.41;4996511;28;20659;-60
2024/01/07 01:38:51;;;;;;;14.47;8.00;;;;;;;-5.45;79.10;100572.34;4989917;28;20216;-64
2024/01/07 01:41:19;;;;;;;12.67;7.27;;;;;;;-5.40;78.87;100574.38;4991425;28;20270;-57
2024/01/07 01:43:47;;;;;;;13.30;7.63;;;;;;;-5.36;78.62;100568.75;4989159;28;20204;-59
2024/01/07 01:46:15;;;;;;;12.00;7.47;;;;;;;-5.31;78.83;100570.66;4998015;28;20243;-57
2024/01/07 01:48:43;;;;;;;11.70;6.30;;;;;;;-5.26;78.69;100571.84;4994493;28;20215;-58
2024/01/07 01:51:12;;;;;;;12.17;6.90;;;;;;;-5.22;78.18;100566.22;5001170;28;20203;-59
2024/01/07 01:53:40;;;;;;;9.53;6.30;;;;;;;-5.25;78.27;100558.50;4999696;28;20217;-56
2024/01/07 01:56:09;;;;;;;13.00;7.17;;;;;;;-5.24;77.96;100572.78;4989112;28;20694;-56
2024/01/07 01:58:37;;;;;;;11.33;6.93;;;;;;;-5.25;78.22;100564.38;4992266;28;20212;-57
2024/01/07 02:01:06;;;;;;;11.13;6.60;;;;;;;-5.23;77.86;100559.44;4988381;28;20200;-58
2024/01/07 02:03:34;;;;;;;12.47;7.57;;;;;;;-5.21;78.19;100563.78;4995302;28;20561;-59
2024/01/07 02:06:03;;;;;;;11.17;7.33;;;;;;;-5.17;78.15;100559.81;4991793;28;20211;-56
2024/01/07 02:08:31;;;;;;;12.77;6.73;;;;;;;-5.10;78.59;100566.94;5002041;28;20207;-58
2024/01/07 02:10:59;;;;;;;10.80;6.70;;;;;;;-5.03;78.16;100571.53;4992338;28;20200;-60
2024/01/07 02:13:28;;;;;;;11.57;6.93;;;;;;;-5.01;77.72;100564.94;4989978;28;20545;-57
2024/01/07 02:15:56;;;;;;;10.47;6.03;;;;;;;-5.01;77.54;100559.91;4998365;28;20611;-59
2024/01/07 02:18:24;;;;;;;10.23;6.30;;;;;;;-5.04;77.48;100562.28;4990977;28;20200;-61
2024/01/07 02:20:52;;;;;;;10.00;5.83;;;;;;;-5.12;77.22;100559.31;4991359;28;20208;-58
2024/01/07 02:23:20;;;;;;;9.20;6.23;;;;;;;-5.14;77.29;100560.00;4988846;28;20267;-57
2024/01/07 02:25:49;;;;;;;10.80;5.50;;;;;;;-5.18;77.62;100560.59;4995271;28;20204;-57
2024/01/07 02:28:17;;;;;;;10.83;6.20;;;;;;;-5.22;77.56;100567.06;4989317;28;20200;-59
2024/01/07 02:30:45;;;;;;;11.10;6.03;;;;;;;-5.26;77.65;100564.28;4992428;28;20200;-59
2024/01/07 02:33:13;;;;;;;11.50;6.03;;;;;;;-5.30;77.77;100569.88;4996328;28;20239;-57
2024/01/07 02:35:41;;;;;;;10.37;6.90;;;;;;;-5.36;77.89;100556.19;4998062;28;20215;-62
2024/01/07 02:38:09;;;;;;;10.80;6.40;;;;;;;-5.40;78.12;100559.31;4995444;28;20211;-56
2024/01/07 02:40:37;;;;;;;11.23;6.27;;;;;;;-5.40;77.98;100568.47;4990992;28;20219;-58
2024/01/07 02:43:06;;;;;;;10.37;6.53;;;;;;;-5.42;78.06;100565.88;4995680;28;20552;-58
2024/01/07 02:45:34;;;;;;;10.73;6.77;;;;;;;-5.45;77.52;100563.19;4996052;28;20573;-56
2024/01/07 02:48:02;;;;;;;12.17;7.00;;;;;;;-5.48;77.91;100565.50;4998406;28;20750;-57
2024/01/07 02:50:30;;;;;;;10.80;6.60;;;;;;;-5.50;77.41;100572.06;4994256;28;20752;-58
2024/01/07 02:52:58;;;;;;;10.40;7.03;;;;;;;-5.53;77.55;100568.50;4998481;28;20231;-59
2024/01/07 02:55:26;;;;;;;10.50;6.57;;;;;;;-5.55;77.82;100565.03;4997142;28;20204;-60
2024/01/07 02:57:53;;;;;;;14.73;7.20;;;;;;;-5.59;77.33;100571.53;4994322;28;20267;-59
2024/01/07 03:00:23;;;;;;;11.90;6.50;;;;;;;-5.62;77.52;100567.16;5002170;28;20212;-58
2024/01/07 03:02:51;;;;;;;7.53;5.57;;;;;;;-5.70;77.30;100562.47;4997423;28;20561;-59
2024/01/07 03:05:19;;;;;;;12.97;6.50;;;;;;;-5.76;77.88;100564.59;5009290;28;20207;-61
2024/01/07 03:07:47;;;;;;;12.10;6.70;;;;;;;-5.79;77.73;100562.75;4989376;28;20722;-56
2024/01/07 03:10:14;;;;;;;12.47;7.73;;;;;;;-5.79;77.83;100574.44;4993646;28;20204;-58
2024/01/07 03:12:42;;;;;;;13.00;7.87;;;;;;;-5.79;78.01;100577.81;4998896;28;20325;-58
2024/01/07 03:15:10;;;;;;;10.30;7.13;;;;;;;-5.76;78.12;100570.47;5000006;28;20200;-61
2024/01/07 03:17:39;;;;;;;12.83;7.47;;;;;;;-5.78;77.32;100567.03;4994800;28;20235;-59
2024/01/07 03:20:08;;;;;;;11.43;7.23;;;;;;;-5.84;77.53;100567.50;4987160;28;20597;-58
2024/01/07 03:22:36;;;;;;;12.80;7.57;;;;;;;-5.88;77.75;100567.22;4993713;28;20236;-57
2024/01/07 03:25:05;;;;;;;13.63;7.73;;;;;;;-5.87;77.61;100569.81;4993002;28;20660;-58
2024/01/07 03:27:34;;;;;;;12.50;8.00;;;;;;;-5.87;77.80;100581.50;4996258;28;20247;-57
2024/01/07 03:30:02;;;;;;;12.70;8.10;;;;;;;-5.95;77.10;100565.13;4993549;28;20558;-58
2024/01/07 03:32:30;;;;;;;11.43;7.03;;;;;;;-6.00;77.47;100574.00;4995899;28;20211;-61
2024/01/07 03:34:59;;;;;;;11.00;6.40;;;;;;;-6.02;77.48;100573.03;5000015;28;20234;-58
2024/01/07 03:37:27;;;;;;;12.33;6.80;;;;;;;-6.05;77.75;100571.19;5010390;28;20566;-59
2024/01/07 03:39:55;;;;;;;11.20;6.20;;;;;;;-6.00;77.88;100574.00;4993244;28;20317;-58
2024/01/07 03:42:23;;;;;;;13.53;7.67;;;;;;;-6.01;77.41;100572.25;4997103;28;20577;-58
2024/01/07 03:44:51;;;;;;;11.93;6.80;;;;;;;-6.07;77.54;100572.75;4995037;28;20660;-57
2024/01/07 03:47:19;;;;;;;8.37;6.33;;;;;;;-6.10;77.27;100573.44;4993998;28;20204;-59
2024/01/07 03:49:47;;;;;;;10.10;6.60;;;;;;;-6.14;77.51;100574.00;4998987;28;20207;-58
2024/01/07 03:52:16;;;;;;;9.57;6.23;;;;;;;-6.09;77.88;100574.28;4997089;28;20208;-60
2024/01/07 03:54:44;;;;;;;9.43;6.00;;;;;;;-6.04;77.68;100582.97;4992915;28;20290;-58
2024/01/07 03:57:12;;;;;;;13.60;7.10;;;;;;;-6.01;77.56;100585.66;4991521;28;20238;-59
2024/01/07 03:59:39;;;;;;;13.57;7.53;;;;;;;-5.98;77.31;100583.34;4994168;28;20585;-56
2024/01/07 04:02:07;;;;;;;10.93;7.13;;;;;;;-5.95;77.41;100590.22;4992302;28;20207;-57
2024/01/07 04:04:37;;;;;;;11.80;7.10;;;;;;;-5.94;77.34;100586.94;4995158;28;20205;-56
2024/01/07 04:07:05;;;;;;;12.07;6.70;;;;;;;-5.91;77.04;100589.59;4992165;28;20298;-59
2024/01/07 04:09:34;;;;;;;10.90;7.00;;;;;;;-5.96;76.93;100589.34;5003869;28;20200;-58
2024/01/07 04:12:03;;;;;;;10.03;6.23;;;;;;;-5.97;76.85;100590.09;4997393;28;20650;-59
2024/01/07 04:14:33;;;;;;;10.13;6.03;;;;;;;-6.01;77.06;100590.69;4994541;28;20208;-57
2024/01/07 04:17:01;;;;;;;9.50;6.83;;;;;;;-6.04;76.67;100587.13;5003821;28;20299;-59
2024/01/07 04:19:29;;;;;;;9.00;6.43;;;;;;;-6.07;76.95;100585.31;4998863;28;20208;-59
2024/01/07 04:21:57;;;;;;;12.80;6.63;;;;;;;-6.12;77.29;100584.97;4997169;28;20633;-58
2024/01/07 04:24:25;;;;;;;9.90;5.87;;;;;;;-6.14;76.61;100576.50;5003485;28;20628;-59
2024/01/07 04:26:54;;;;;;;10.40;6.07;;;;;;;-6.18;76.80;100584.63;4993882;28;20231;-59
2024/01/07 04:29:22;;;;;;;11.57;6.80;;;;;;;-6.18;77.03;100586.25;4994148;28;20208;-61
2024/01/07 04:31:50;;;;;;;12.43;6.57;;;;;;;-6.18;76.84;100588.78;4998482;28;20207;-57
2024/01/07 04:34:18;;;;;;;15.67;6.57;;;;;;;-6.22;76.71;100590.22;5001421;28;20225;-60
2024/01/07 04:36:47;;;;;;;10.80;6.47;;;;;;;-6.21;76.99;100588.56;5006110;28;20263;-56
2024/01/07 04:39:15;;;;;;;9.77;6.40;;;;;;;-6.25;76.86;100586.63;4999399;28;20240;-59
2024/01/07 04:41:43;;;;;;;11.00;6.77;;;;;;;-6.25;77.07;100585.00;4998634;28;20215;-60
2024/01/07 04:44:13;;;;;;;8.27;6.07;;;;;;;-6.27;77.14;100591.53;4995002;28;20208;-58
2024/01/07 04:46:41;;;;;;;12.97;7.07;;;;;;;-6.25;77.03;100594.16;4997788;28;20608;-59
2024/01/07 04:49:09;;;;;;;10.90;6.30;;;;;;;-6.24;76.87;100593.38;4990626;28;20294;-60
2024/01/07 04:51:37;;;;;;;8.27;6.30;;;;;;;-6.29;76.79;100588.09;4992760;28;20200;-58
2024/01/07 04:54:05;;;;;;;12.20;6.27;;;;;;;-6.32;76.72;100588.75;5002811;28;20243;-58
2024/01/07 04:56:33;;;;;;;10.63;6.67;;;;;;;-6.32;76.99;100590.38;4998057;28;20207;-58
2024/01/07 04:59:01;;;;;;;10.03;6.43;;;;;;;-6.34;76.85;100595.28;4993865;28;20192;-59
2024/01/07 05:01:33;;;;;;;9.33;6.10;;;;;;;-6.34;77.17;100595.28;4987916;28;20675;-56
2024/01/07 05:04:01;;;;;;;10.23;6.37;;;;;;;-6.34;76.85;100591.91;4998381;28;20200;-58
2024/01/07 05:06:29;;;;;;;12.90;7.17;;;;;;;-6.32;77.52;100601.28;4989886;28;20295;-60
2024/01/07 05:08:57;;;;;;;10.80;6.80;;;;;;;-6.32;77.04;100597.91;4999644;28;20215;-58
2024/01/07 05:11:26;;;;;;;10.67;6.40;;;;;;;-6.24;77.25;100598.41;4995676;28;20234;-58
2024/01/07 05:13:53;;;;;;;10.30;5.93;;;;;;;-6.22;77.13;100606.88;4997906;28;20775;-60
2024/01/07 05:16:22;;;;;;;10.37;6.00;;;;;;;-6.17;76.94;100605.53;4990131;28;20263;-55
2024/01/07 05:18:51;;;;;;;9.23;6.03;;;;;;;-6.12;76.99;100606.69;5001161;28;20207;-58
2024/01/07 05:21:19;;;;;;;8.60;5.50;;;;;;;-6.09;77.02;100611.91;4995494;28;20306;-59
2024/01/07 05:23:47;;;;;;;10.00;6.10;;;;;;;-6.12;76.01;100609.19;4998264;28;20241;-58
2024/01/07 05:26:16;;;;;;;9.60;6.10;;;;;;;-6.12;76.45;100616.72;4985132;28;20199;-56
2024/01/07 05:28:46;;;;;;;9.27;6.50;;;;;;;-6.13;76.10;100615.00;4990733;28;20213;-57
2024/01/07 05:31:17;;;;;;;10.77;5.90;;;;;;;-6.21;75.79;100608.63;4994253;28;20200;-57
2024/01/07 05:33:46;;;;;;;13.40;5.93;;;;;;;-6.33;75.84;100607.06;4991616;28;20250;-57
2024/01/07 05:36:16;;;;;;;10.57;6.27;;;;;;;-6.38;76.02;100615.06;4992028;28;20211;-58
2024/01/07 05:38:44;;;;;;;7.27;5.37;;;;;;;-6.39;76.39;100619.19;4991504;28;20210;-64
2024/01/07 05:41:12;;;;;;;10.00;5.97;;;;;;;-6.40;76.59;100614.09;4994613;28;20216;-57
2024/01/07 05:43:40;;;;;;;11.17;5.97;;;;;;;-6.44;76.42;100623.06;4996878;28;20212;-60
2024/01/07 05:46:08;;;;;;;9.77;5.97;;;;;;;-6.46;76.74;100626.22;4999255;28;20654;-58
2024/01/07 05:48:43;;;;;;;11.73;6.83;;;;;;;-6.44;76.86;100632.19;4991387;28;20735;-60
2024/01/07 05:51:12;;;;;;;10.83;6.37;;;;;;;-6.44;77.07;100625.56;4990415;28;20200;-58
2024/01/07 05:53:41;;;;;;;8.30;5.80;;;;;;;-6.38;77.38;100625.94;4995576;28;20208;-59
2024/01/07 05:56:09;;;;;;;9.13;5.93;;;;;;;-6.35;77.14;100616.13;4994359;28;20726;-58
2024/01/07 05:58:37;;;;;;;9.47;6.30;;;;;;;-6.32;77.10;100613.81;4990870;28;20207;-60
2024/01/07 06:01:07;;;;;;;14.13;6.93;;;;;;;-6.35;76.31;100603.59;4999503;28;20251;-61
2024/01/07 06:03:35;;;;;;;8.83;5.07;;;;;;;-6.33;75.92;100618.75;4998230;28;20558;-59
2024/01/07 06:06:04;;;;;;;12.07;6.67;;;;;;;-6.35;76.27;100622.78;4992415;28;20214;-57
2024/01/07 06:08:32;;;;;;;14.30;6.60;;;;;;;-6.36;76.23;100624.41;4989300;28;20239;-60
2024/01/07 06:11:01;;;;;;;11.90;6.73;;;;;;;-6.37;76.29;100627.69;4992346;28;20259;-58
2024/01/07 06:13:29;;;;;;;10.50;6.13;;;;;;;-6.35;76.51;100626.16;4992643;28;20747;-61
2024/01/07 06:15:57;;;;;;;11.57;6.70;;;;;;;-6.35;76.32;100621.13;5002051;28;20636;-58
2024/01/07 06:18:25;;;;;;;9.63;6.47;;;;;;;-6.37;75.98;100627.69;5003911;28;20234;-58
2024/01/07 06:20:53;;;;;;;9.37;6.47;;;;;;;-6.42;75.93;100629.03;4995934;28;20230;-56
2024/01/07 06:23:21;;;;;;;13.53;6.77;;;;;;;-6.45;76.16;100623.81;5004354;28;20228;-58
2024/01/07 06:25:49;;;;;;;8.00;6.00;;;;;;;-6.45;76.33;100626.31;4995715;28;20200;-57
2024/01/07 06:28:18;;;;;;;9.77;6.50;;;;;;;-6.45;75.93;100628.81;4993899;28;20208;-56
2024/01/07 06:30:46;;;;;;;9.30;6.20;;;;;;;-6.41;76.50;100639.91;4995192;28;20714;-56
2024/01/07 06:33:14;;;;;;;10.17;6.37;;;;;;;-6.40;76.31;100639.16;5003835;28;20199;-59
2024/01/07 06:35:42;;;;;;;9.03;6.33;;;;;;;-6.40;76.18;100642.53;5003196;28;20211;-58
2024/01/07 06:38:10;;;;;;;8.57;6.00;;;;;;;-6.43;76.03;100639.81;5004684;28;20211;-62
2024/01/07 06:40:38;;;;;;;10.67;6.27;;;;;;;-6.47;76.30;100652.94;4996189;28;20219;-57
2024/01/07 06:43:06;;;;;;;8.70;5.87;;;;;;;-6.50;76.25;100650.22;4988520;28;20224;-62
2024/01/07 06:45:36;;;;;;;11.97;6.20;;;;;;;-6.50;76.40;100655.22;4995769;28;20224;-58
2024/01/07 06:48:04;;;;;;;9.43;5.60;;;;;;;-6.48;76.41;100652.81;5009060;28;20218;-59
2024/01/07 06:50:33;;;;;;;11.27;6.23;;;;;;;-6.44;76.05;100668.19;4999451;28;20655;-58
2024/01/07 06:53:01;;;;;;;10.17;6.20;;;;;;;-6.48;75.90;100662.84;5009328;28;20211;-60
2024/01/07 06:55:28;;;;;;;13.33;5.97;;;;;;;-6.46;76.08;100661.31;4998203;28;20243;-58
2024/01/07 06:57:56;;;;;;;12.33;6.30;;;;;;;-6.43;76.18;100671.56;4995793;28;20669;-56
2024/01/07 07:00:24;;;;;;;8.70;5.67;;;;;;;-6.41;75.96;100670.88;4990165;28;20208;-58
2024/01/07 07:02:54;;;;;;;8.70;5.87;;;;;;;-6.43;75.85;100669.91;4994937;28;20270;-58
2024/01/07 07:05:22;;;;;;;8.33;5.30;;;;;;;-6.46;75.97;100677.22;4997643;28;20261;-60
2024/01/07 07:07:49;;;;;;;10.67;6.30;;;;;;;-6.46;75.99;100673.84;4997886;28;20262;-58
2024/01/07 07:10:22;;;;;;;10.73;5.83;;;;;;;-6.43;76.36;100672.41;5000148;28;20215;-58
2024/01/07 07:12:51;;;;;;;8.47;5.40;;;;;;;-6.37;75.92;100671.94;4994978;28;20295;-59
2024/01/07 07:15:19;;;;;;;10.93;6.03;;;;;;;-6.44;75.36;100670.69;4996694;28;20311;-59
2024/01/07 07:17:47;;;;;;;10.30;6.53;;;;;;;-6.43;75.98;100679.06;5000415;28;20211;-58
2024/01/07 07:20:16;;;;;;;11.07;6.27;;;;;;;-6.40;75.74;100685.16;4996798;28;20711;-58
2024/01/07 07:22:44;;;;;;;7.57;4.90;;;;;;;-6.39;75.57;100689.41;5004578;28;20250;-58
2024/01/07 07:25:12;;;;;;;10.23;5.60;;;;;;;-6.42;75.58;100686.69;4994354;28;20274;-58
2024/01/07 07:27:40;;;;;;;10.70;6.33;;;;;;;-6.40;75.41;100679.28;4993896;28;20209;-59
2024/01/07 07:30:09;;;;;;;8.07;5.67;;;;;;;-6.42;75.79;100679.16;4994357;28;20210;-57
2024/01/07 07:32:40;;;;;;;11.13;6.70;;;;;;;-6.40;75.84;100681.78;5002024;28;20206;-57
2024/01/07 07:35:08;;;;;;;10.93;6.20;;;;;;;-6.34;75.70;100683.03;5002645;28;20270;-58
2024/01/07 07:37:38;;;;;;;10.20;6.07;;;;;;;-6.32;75.54;100681.50;4994064;28;20559;-58
2024/01/07 07:40:07;;;;;;;11.53;6.60;;;;;;;-6.26;75.71;100687.69;4993080;28;20541;-62
2024/01/07 07:42:35;;;;;;;9.10;5.97;;;;;;;-6.23;75.82;100682.88;4980872;28;20557;-63
2024/01/07 07:45:05;;;;;;;10.37;6.37;;;;;;;-6.19;75.59;100694.84;4993366;28;20539;-65
2024/01/07 07:47:33;;;;;;;11.43;6.30;;;;;;;-6.17;75.03;100695.81;4996861;28;20204;-60
2024/01/07 07:50:02;;;;;;;8.10;5.60;;;;;;;-6.18;74.91;100692.47;4993551;28;20211;-58
2024/01/07 07:52:30;;;;;;;8.80;6.17;;;;;;;-6.17;75.16;100695.81;4998731;28;20667;-60
2024/01/07 07:54:59;;;;;;;9.10;5.47;;;;;;;-6.17;75.30;100703.34;4994907;28;20212;-63
2024/01/07 07:57:28;;;;;;;9.87;5.80;;;;;;;-6.14;75.14;100696.03;4993340;28;20207;-59
2024/01/07 07:59:56;;;;;;;7.33;5.43;;;;;;;-6.17;75.01;100696.69;4993797;28;20215;-60
2024/01/07 08:02:26;;;;;;;8.97;5.73;;;;;;;-6.10;75.45;100697.97;4995104;28;21275;-61
2024/01/07 08:04:54;;;;;;;12.07;6.80;;;;;;;-6.05;74.98;100709.16;4989920;28;20219;-60
2024/01/07 08:07:22;;;;;;;9.33;5.60;;;;;;;-6.02;75.35;100704.34;4995949;28;20646;-61
2024/01/07 08:09:50;;;;;;;11.20;6.07;;;;;;;-6.02;74.78;100711.88;4992586;28;20575;-61
2024/01/07 08:12:19;;;;;;;8.30;5.67;;;;;;;-6.00;74.79;100700.31;5001016;28;20200;-60
2024/01/07 08:14:47;;;;;;;11.50;5.93;;;;;;;-5.97;74.58;100713.03;4993645;28;20204;-59
2024/01/07 08:17:15;;;;;;;7.97;5.70;;;;;;;-5.96;74.14;100713.94;4991185;28;20196;-60
2024/01/07 08:19:43;;;;;;;8.70;5.70;;;;;;;-5.98;73.81;100723.84;4990093;28;20210;-61
2024/01/07 08:22:12;;;;;;;8.53;6.10;;;;;;;-5.99;74.08;100718.75;4994396;28;20240;-63
2024/01/07 08:24:40;;;;;;;9.00;5.17;;;;;;;-6.00;73.85;100729.53;5003280;28;20214;-60
2024/01/07 08:27:09;;;;;;;10.17;6.73;;;;;;;-6.01;73.87;100722.78;4990731;28;20724;-62
2024/01/07 08:29:38;;;;;;;8.83;5.50;;;;;;;-5.99;73.83;100729.63;4990586;28;20289;-59
2024/01/07 08:32:07;;;;;;;10.13;5.33;;;;;;;-5.97;74.08;100729.72;4991371;28;20206;-58
2024/01/07 08:34:34;;;;;;;9.83;6.07;;;;;;;-5.95;74.00;100726.56;4993526;28;20296;-59
2024/01/07 08:37:03;;;;;;;10.40;6.07;;;;;;;-5.88;74.00;100723.66;4992921;28;20200;-60
2024/01/07 08:39:31;;;;;;;10.03;5.90;;;;;;;-5.79;74.16;100725.88;4984829;28;20207;-58
2024/01/07 08:41:59;;;;;;;9.17;5.73;;;;;;;-5.73;73.21;100730.44;5002836;28;20204;-58
2024/01/07 08:44:27;;;;;;;11.60;5.77;;;;;;;-5.69;72.87;100732.34;4996969;28;20203;-59
2024/01/07 08:46:56;;;;;;;9.87;5.97;;;;;;;-5.73;72.73;100731.28;5006128;28;20211;-60
2024/01/07 08:49:24;;;;;;;9.33;6.53;;;;;;;-5.73;72.82;100727.91;4992716;28;20258;-59
2024/01/07 08:51:52;;;;;;;10.30;6.20;;;;;;;-5.75;72.30;100736.97;4989789;28;20216;-59
2024/01/07 08:54:20;;;;;;;9.07;5.67;;;;;;;-5.77;72.53;100728.50;4992480;28;20698;-60
2024/01/07 08:56:49;;;;;;;11.97;6.10;;;;;;;-5.80;72.53;100739.19;4992859;28;20207;-59
2024/01/07 08:59:17;;;;;;;10.13;5.53;;;;;;;-5.80;72.69;100740.84;4991386;28;20208;-62
2024/01/07 09:01:45;;;;;;;8.87;5.87;;;;;;;-5.80;72.52;100745.84;5000308;28;20639;-60
2024/01/07 09:04:16;;;;;;;8.77;5.40;;;;;;;-5.85;72.60;100746.44;4992167;28;20700;-59
2024/01/07 09:06:44;;;;;;;9.83;6.03;;;;;;;-5.88;73.24;100747.88;4996219;28;20226;-61
2024/01/07 09:09:12;;;;;;;10.67;5.87;;;;;;;-5.88;72.91;100751.25;4993364;28;20204;-62
2024/01/07 09:11:40;;;;;;;10.63;5.53;;;;;;;-5.86;72.83;100743.81;4988877;28;20219;-55
2024/01/07 09:14:08;;;;;;;8.93;5.67;;;;;;;-5.88;73.06;100736.19;4991084;28;20656;-53
2024/01/07 09:16:36;;;;;;;10.90;6.50;;;;;;;-5.94;72.51;100740.84;4992424;28;20210;-56
2024/01/07 09:19:04;;;;;;;8.83;6.07;;;;;;;-5.94;72.96;100744.97;4990626;28;20231;-55
2024/01/07 09:21:33;;;;;;;7.67;5.67;;;;;;;-5.89;73.31;100749.50;4993323;28;20648;-53
2024/01/07 09:24:02;;;;;;;9.80;6.20;;;;;;;-5.82;73.57;100750.75;5005630;28;20686;-53
2024/01/07 09:26:30;;;;;;;9.17;5.70;;;;;;;-5.75;72.73;100744.50;4993571;28;20212;-54
2024/01/07 09:28:58;;;;;;;10.03;6.17;;;;;;;-5.72;72.33;100742.19;4989460;28;20208;-57
2024/01/07 09:31:25;;;;;;;7.60;5.47;;;;;;;-5.75;72.43;100739.47;4991703;28;20668;-55
2024/01/07 09:33:54;;;;;;;10.33;6.10;;;;;;;-5.80;72.29;100738.31;4997211;28;20331;-54
2024/01/07 09:36:22;;;;;;;8.07;6.10;;;;;;;-5.80;72.77;100735.81;4997181;28;20261;-59
2024/01/07 09:38:58;;;;;;;8.00;5.03;;;;;;;-5.79;72.55;100730.03;4990005;28;20203;-59
2024/01/07 09:41:26;;;;;;;10.80;6.87;;;;;;;-5.76;72.09;100727.72;4989594;28;20234;-61
2024/01/07 09:43:57;;;;;;;8.80;6.27;;;;;;;-5.76;72.17;100731.09;4992415;28;20218;-56
2024/01/07 09:46:25;;;;;;;6.87;5.40;;;;;;;-5.75;72.40;100734.47;4992581;28;20595;-59
2024/01/07 09:48:53;;;;;;;10.13;5.97;;;;;;;-5.72;72.61;100734.66;4991406;28;20207;-60
2024/01/07 09:51:23;;;;;;;8.60;5.77;;;;;;;-5.72;72.39;100734.66;4999933;28;20211;-59
2024/01/07 09:53:56;;;;;;;8.87;5.77;;;;;;;-5.79;72.52;100732.53;4990145;28;20238;-61
2024/01/07 09:56:26;;;;;;;9.63;5.57;;;;;;;-5.84;72.37;100723.06;4990111;28;20238;-60
2024/01/07 09:58:55;;;;;;;9.30;6.33;;;;;;;-5.80;72.85;100733.31;4989750;28;20203;-57
2024/01/07 10:01:23;;;;;;;10.43;6.20;;;;;;;-5.81;72.56;100732.44;4995440;28;20630;-55
2024/01/07 10:03:51;;;;;;;10.23;5.90;;;;;;;-5.81;72.34;100737.47;5002723;28;20590;-55
2024/01/07 10:06:19;;;;;;;9.43;6.07;;;;;;;-5.77;72.42;100728.50;5003516;28;20204;-59
2024/01/07 10:08:47;;;;;;;11.43;7.10;;;;;;;-5.77;72.19;100731.00;4994332;28;20303;-61
2024/01/07 10:11:15;;;;;;;12.20;7.37;;;;;;;-5.84;71.93;100730.59;4994058;28;20716;-64
2024/01/07 10:13:48;;;;;;;10.10;6.20;;;;;;;-5.87;72.57;100729.53;4991931;28;20212;-59
2024/01/07 10:16:16;;;;;;;9.83;6.17;;;;;;;-5.87;72.62;100724.50;4986574;28;20311;-57
2024/01/07 10:18:44;;;;;;;8.43;6.03;;;;;;;-5.90;72.36;100737.72;4989797;28;20219;-55
2024/01/07 10:21:12;;;;;;;10.83;6.87;;;;;;;-5.96;72.77;100732.34;4989311;28;20591;-58
2024/01/07 10:23:40;;;;;;;8.70;6.50;;;;;;;-5.95;73.28;100731.56;4987843;28;20248;-61
2024/01/07 10:26:08;;;;;;;12.77;7.30;;;;;;;-5.95;73.41;100723.19;4998405;28;20210;-62
2024/01/07 10:28:51;;;;;;;11.27;6.70;;;;;;;-5.97;73.31;100728.06;4995845;28;20200;-61
2024/01/07 10:31:20;;;;;;;10.03;6.30;;;;;;;-6.00;73.32;100720.38;4988228;28;20204;-60
2024/01/07 10:33:49;;;;;;;10.27;6.63;;;;;;;-5.98;73.76;100726.34;4991105;28;20203;-68
2024/01/07 10:36:18;;;;;;;12.13;6.30;;;;;;;-6.00;73.64;100727.91;4988274;28;20719;-64
2024/01/07 10:38:46;;;;;;;10.27;7.67;;;;;;;-6.02;73.42;100723.56;4987742;28;20706;-64
2024/01/07 10:41:15;;;;;;;11.17;6.90;;;;;;;-6.08;73.53;100724.88;4987144;28;20236;-66
2024/01/07 10:43:47;;;;;;;11.43;6.47;;;;;;;-6.09;73.79;100727.28;4988945;28;20259;-64
2024/01/07 10:46:17;;;;;;;11.33;7.30;;;;;;;-6.14;73.28;100724.50;4990450;28;20232;-64
2024/01/07 10:48:54;;;;;;;10.60;7.73;;;;;;;-6.14;73.76;100724.50;4990666;28;20211;-62
2024/01/07 10:51:23;;;;;;;11.47;6.97;;;;;;;-6.07;74.00;100728.28;4994130;28;20299;-65
2024/01/07 10:53:54;;;;;;;12.87;7.53;;;;;;;-6.03;73.99;100729.34;4988120;28;20210;-63
2024/01/07 10:56:24;;;;;;;11.70;6.40;;;;;;;-6.07;73.80;100728.28;4990068;28;20216;-68
2024/01/07 10:58:53;;;;;;;9.20;6.33;;;;;;;-6.12;73.91;100730.47;4993626;28;20298;-55
2024/01/07 11:01:23;;;;;;;12.60;7.30;;;;;;;-6.04;74.71;100732.59;4989388;28;20223;-58
2024/01/07 11:04:00;;;;;;;10.83;7.20;;;;;;;-5.95;74.54;100739.09;4994386;28;20235;-57
2024/01/07 11:06:35;;;;;;;10.13;6.07;;;;;;;-5.91;73.81;100738.50;4994472;28;20718;-58
2024/01/07 11:09:12;;;;;;;12.40;7.87;;;;;;;-5.90;73.65;100737.72;4994320;28;20580;-59
2024/01/07 11:11:42;;;;;;;10.47;6.83;;;;;;;-5.90;73.27;100730.19;4999481;28;20227;-58
2024/01/07 11:14:36;;;;;;;10.90;6.77;;;;;;;-5.91;73.21;100725.94;4994080;28;20211;-54
2024/01/07 11:17:05;;;;;;;10.67;6.73;;;;;;;-5.91;73.37;100730.97;4991068;28;20204;-54
2024/01/07 11:19:33;;;;;;;10.93;6.67;;;;;;;-5.85;74.22;100726.34;4994608;28;20658;-54
2024/01/07 11:22:24;;;;;;;10.47;7.33;;;;;;;-5.83;73.98;100733.97;4993968;28;20211;-60
2024/01/07 11:24:53;;;;;;;13.53;7.70;;;;;;;-5.80;73.55;100735.81;4990419;28;20227;-55
2024/01/07 11:27:22;;;;;;;10.87;6.97;;;;;;;-5.85;72.72;100731.38;4993413;28;20675;-55